sensor_id;sensor_type;location;lat;lon;timestamp;P1;durP1;ratioP1;P2;durP2;ratioP2
9671;SDS011;4874;43.568;27.824;2023-06-14T00:00:13;5.28;;;2.47;;
9671;SDS011;4874;43.568;27.824;2023-06-14T00:02:41;3.95;;;2.47;;
9671;SDS011;4874;43.568;27.824;2023-06-14T00:05:08;10.02;;;2.90;;
9671;SDS011;4874;43.568;27.824;2023-06-14T00:07:36;8.25;;;6.97;;
9671;SDS011;4874;43.568;27.824;2023-06-14T00:10:05;18.63;;;15.95;;
9671;SDS011;4874;43.568;27.824;2023-06-14T00:12:32;8.35;;;5.80;;
9671;SDS011;4874;43.568;27.824;2023-06-14T00:14:59;4.97;;;3.58;;
9671;SDS011;4874;43.568;27.824;2023-06-14T00:17:27;5.95;;;3.55;;
9671;SDS011;4874;43.568;27.824;2023-06-14T00:19:58;4.90;;;2.90;;
9671;SDS011;4874;43.568;27.824;2023-06-14T00:22:25;3.28;;;2.35;;
9671;SDS011;4874;43.568;27.824;2023-06-14T00:24:55;6.05;;;2.80;;
9671;SDS011;4874;43.568;27.824;2023-06-14T00:27:21;6.22;;;3.33;;
9671;SDS011;4874;43.568;27.824;2023-06-14T00:29:48;6.30;;;3.05;;
9671;SDS011;4874;43.568;27.824;2023-06-14T00:32:15;4.13;;;2.70;;
9671;SDS011;4874;43.568;27.824;2023-06-14T00:34:44;5.63;;;3.20;;
9671;SDS011;4874;43.568;27.824;2023-06-14T00:37:11;3.95;;;2.80;;
9671;SDS011;4874;43.568;27.824;2023-06-14T00:39:38;5.50;;;3.55;;
9671;SDS011;4874;43.568;27.824;2023-06-14T00:42:04;4.63;;;2.67;;
9671;SDS011;4874;43.568;27.824;2023-06-14T00:44:32;3.95;;;2.90;;
9671;SDS011;4874;43.568;27.824;2023-06-14T00:46:58;5.65;;;3.10;;
9671;SDS011;4874;43.568;27.824;2023-06-14T00:49:25;4.65;;;3.45;;
9671;SDS011;4874;43.568;27.824;2023-06-14T00:51:52;7.90;;;3.42;;
9671;SDS011;4874;43.568;27.824;2023-06-14T00:54:19;6.25;;;3.28;;
9671;SDS011;4874;43.568;27.824;2023-06-14T00:56:46;5.55;;;3.20;;
9671;SDS011;4874;43.568;27.824;2023-06-14T00:59:12;7.38;;;3.92;;
9671;SDS011;4874;43.568;27.824;2023-06-14T01:01:40;5.00;;;3.30;;
9671;SDS011;4874;43.568;27.824;2023-06-14T01:04:06;6.10;;;3.53;;
9671;SDS011;4874;43.568;27.824;2023-06-14T01:06:38;4.70;;;3.50;;
9671;SDS011;4874;43.568;27.824;2023-06-14T01:09:37;6.50;;;4.00;;
9671;SDS011;4874;43.568;27.824;2023-06-14T01:12:11;5.05;;;3.72;;
9671;SDS011;4874;43.568;27.824;2023-06-14T01:14:43;8.30;;;3.90;;
9671;SDS011;4874;43.568;27.824;2023-06-14T01:17:12;6.25;;;3.70;;
9671;SDS011;4874;43.568;27.824;2023-06-14T01:19:43;5.95;;;3.63;;
9671;SDS011;4874;43.568;27.824;2023-06-14T01:22:10;5.65;;;3.78;;
9671;SDS011;4874;43.568;27.824;2023-06-14T01:24:37;6.55;;;4.40;;
9671;SDS011;4874;43.568;27.824;2023-06-14T01:27:05;6.63;;;4.25;;
9671;SDS011;4874;43.568;27.824;2023-06-14T01:29:33;7.20;;;4.15;;
9671;SDS011;4874;43.568;27.824;2023-06-14T01:32:02;5.68;;;4.35;;
9671;SDS011;4874;43.568;27.824;2023-06-14T01:34:30;5.60;;;3.90;;
9671;SDS011;4874;43.568;27.824;2023-06-14T01:36:58;9.88;;;4.35;;
9671;SDS011;4874;43.568;27.824;2023-06-14T01:39:27;5.90;;;4.53;;
9671;SDS011;4874;43.568;27.824;2023-06-14T01:41:54;8.50;;;5.00;;
9671;SDS011;4874;43.568;27.824;2023-06-14T01:44:21;6.57;;;4.78;;
9671;SDS011;4874;43.568;27.824;2023-06-14T01:46:49;7.20;;;4.72;;
9671;SDS011;4874;43.568;27.824;2023-06-14T01:49:17;6.68;;;4.50;;
9671;SDS011;4874;43.568;27.824;2023-06-14T01:51:44;7.60;;;5.15;;
9671;SDS011;4874;43.568;27.824;2023-06-14T01:54:10;8.43;;;5.07;;
9671;SDS011;4874;43.568;27.824;2023-06-14T01:56:37;8.43;;;5.00;;
9671;SDS011;4874;43.568;27.824;2023-06-14T01:59:04;9.18;;;5.80;;
9671;SDS011;4874;43.568;27.824;2023-06-14T02:01:31;6.97;;;5.10;;
9671;SDS011;4874;43.568;27.824;2023-06-14T02:04:00;8.77;;;5.85;;
9671;SDS011;4874;43.568;27.824;2023-06-14T02:06:27;8.63;;;5.50;;
9671;SDS011;4874;43.568;27.824;2023-06-14T02:08:54;8.02;;;5.95;;
9671;SDS011;4874;43.568;27.824;2023-06-14T02:11:21;8.30;;;5.90;;
9671;SDS011;4874;43.568;27.824;2023-06-14T02:13:47;8.35;;;5.93;;
9671;SDS011;4874;43.568;27.824;2023-06-14T02:16:14;10.63;;;7.20;;
9671;SDS011;4874;43.568;27.824;2023-06-14T02:18:43;9.95;;;6.65;;
9671;SDS011;4874;43.568;27.824;2023-06-14T02:21:10;8.30;;;6.30;;
9671;SDS011;4874;43.568;27.824;2023-06-14T02:23:37;10.00;;;6.82;;
9671;SDS011;4874;43.568;27.824;2023-06-14T02:26:04;9.35;;;6.50;;
9671;SDS011;4874;43.568;27.824;2023-06-14T02:28:30;9.88;;;6.85;;
9671;SDS011;4874;43.568;27.824;2023-06-14T02:30:57;9.43;;;6.88;;
9671;SDS011;4874;43.568;27.824;2023-06-14T02:33:24;11.55;;;7.53;;
9671;SDS011;4874;43.568;27.824;2023-06-14T02:35:51;9.82;;;7.20;;
9671;SDS011;4874;43.568;27.824;2023-06-14T02:38:19;9.38;;;6.25;;
9671;SDS011;4874;43.568;27.824;2023-06-14T02:40:45;9.75;;;7.25;;
9671;SDS011;4874;43.568;27.824;2023-06-14T02:43:13;9.65;;;7.10;;
9671;SDS011;4874;43.568;27.824;2023-06-14T02:45:39;10.90;;;7.13;;
9671;SDS011;4874;43.568;27.824;2023-06-14T02:48:07;13.40;;;8.05;;
9671;SDS011;4874;43.568;27.824;2023-06-14T02:50:34;9.50;;;7.57;;
9671;SDS011;4874;43.568;27.824;2023-06-14T02:53:00;11.75;;;7.70;;
9671;SDS011;4874;43.568;27.824;2023-06-14T02:55:29;8.65;;;6.80;;
9671;SDS011;4874;43.568;27.824;2023-06-14T02:57:55;12.93;;;7.85;;
9671;SDS011;4874;43.568;27.824;2023-06-14T03:00:22;11.00;;;7.43;;
9671;SDS011;4874;43.568;27.824;2023-06-14T03:02:49;11.00;;;7.57;;
9671;SDS011;4874;43.568;27.824;2023-06-14T03:05:17;13.15;;;7.40;;
9671;SDS011;4874;43.568;27.824;2023-06-14T03:07:48;11.23;;;7.90;;
9671;SDS011;4874;43.568;27.824;2023-06-14T03:10:17;11.82;;;7.30;;
9671;SDS011;4874;43.568;27.824;2023-06-14T03:12:43;10.93;;;7.13;;
9671;SDS011;4874;43.568;27.824;2023-06-14T03:15:11;12.02;;;7.72;;
9671;SDS011;4874;43.568;27.824;2023-06-14T03:17:39;10.55;;;7.45;;
9671;SDS011;4874;43.568;27.824;2023-06-14T03:20:07;12.65;;;7.85;;
9671;SDS011;4874;43.568;27.824;2023-06-14T03:22:34;10.27;;;7.03;;
9671;SDS011;4874;43.568;27.824;2023-06-14T03:25:01;10.02;;;7.47;;
9671;SDS011;4874;43.568;27.824;2023-06-14T03:27:30;10.90;;;7.80;;
9671;SDS011;4874;43.568;27.824;2023-06-14T03:29:57;10.07;;;7.75;;
9671;SDS011;4874;43.568;27.824;2023-06-14T03:32:24;10.20;;;7.43;;
9671;SDS011;4874;43.568;27.824;2023-06-14T03:34:51;9.80;;;7.30;;
9671;SDS011;4874;43.568;27.824;2023-06-14T03:37:18;10.43;;;6.88;;
9671;SDS011;4874;43.568;27.824;2023-06-14T03:39:45;10.80;;;7.63;;
9671;SDS011;4874;43.568;27.824;2023-06-14T03:42:13;10.75;;;7.10;;
9671;SDS011;4874;43.568;27.824;2023-06-14T03:44:40;11.02;;;6.68;;
9671;SDS011;4874;43.568;27.824;2023-06-14T03:47:07;9.85;;;7.75;;
9671;SDS011;4874;43.568;27.824;2023-06-14T03:49:34;8.70;;;6.40;;
9671;SDS011;4874;43.568;27.824;2023-06-14T03:52:01;10.68;;;7.60;;
9671;SDS011;4874;43.568;27.824;2023-06-14T03:54:28;11.00;;;6.93;;
9671;SDS011;4874;43.568;27.824;2023-06-14T03:57:15;14.30;;;7.60;;
9671;SDS011;4874;43.568;27.824;2023-06-14T03:59:42;10.10;;;6.93;;
9671;SDS011;4874;43.568;27.824;2023-06-14T04:02:09;7.88;;;6.45;;
9671;SDS011;4874;43.568;27.824;2023-06-14T04:04:36;13.40;;;9.43;;
9671;SDS011;4874;43.568;27.824;2023-06-14T04:07:04;19.58;;;10.55;;
9671;SDS011;4874;43.568;27.824;2023-06-14T04:09:31;9.52;;;6.82;;
9671;SDS011;4874;43.568;27.824;2023-06-14T04:11:58;10.68;;;6.72;;
9671;SDS011;4874;43.568;27.824;2023-06-14T04:14:24;8.25;;;6.50;;
9671;SDS011;4874;43.568;27.824;2023-06-14T04:16:51;8.68;;;6.63;;
9671;SDS011;4874;43.568;27.824;2023-06-14T04:19:18;9.13;;;6.72;;
9671;SDS011;4874;43.568;27.824;2023-06-14T04:21:45;9.20;;;6.40;;
9671;SDS011;4874;43.568;27.824;2023-06-14T04:24:12;8.80;;;6.75;;
9671;SDS011;4874;43.568;27.824;2023-06-14T04:26:43;9.45;;;6.70;;
9671;SDS011;4874;43.568;27.824;2023-06-14T04:29:11;8.52;;;6.85;;
9671;SDS011;4874;43.568;27.824;2023-06-14T04:31:43;10.65;;;7.22;;
9671;SDS011;4874;43.568;27.824;2023-06-14T04:34:11;8.23;;;6.15;;
9671;SDS011;4874;43.568;27.824;2023-06-14T04:36:48;10.13;;;6.80;;
9671;SDS011;4874;43.568;27.824;2023-06-14T04:39:19;10.25;;;6.45;;
9671;SDS011;4874;43.568;27.824;2023-06-14T04:41:50;11.25;;;6.63;;
9671;SDS011;4874;43.568;27.824;2023-06-14T04:44:23;8.80;;;6.72;;
9671;SDS011;4874;43.568;27.824;2023-06-14T04:46:56;9.98;;;6.60;;
9671;SDS011;4874;43.568;27.824;2023-06-14T04:49:25;12.40;;;9.40;;
9671;SDS011;4874;43.568;27.824;2023-06-14T04:51:56;17.50;;;13.10;;
9671;SDS011;4874;43.568;27.824;2023-06-14T04:54:28;8.90;;;6.43;;
9671;SDS011;4874;43.568;27.824;2023-06-14T04:56:57;9.20;;;5.80;;
9671;SDS011;4874;43.568;27.824;2023-06-14T04:59:24;11.23;;;6.72;;
9671;SDS011;4874;43.568;27.824;2023-06-14T05:01:51;10.75;;;7.50;;
9671;SDS011;4874;43.568;27.824;2023-06-14T05:04:19;12.45;;;6.70;;
9671;SDS011;4874;43.568;27.824;2023-06-14T05:06:47;10.20;;;5.63;;
9671;SDS011;4874;43.568;27.824;2023-06-14T05:09:14;10.38;;;6.65;;
9671;SDS011;4874;43.568;27.824;2023-06-14T05:11:43;7.95;;;5.80;;
9671;SDS011;4874;43.568;27.824;2023-06-14T05:14:10;8.18;;;5.47;;
9671;SDS011;4874;43.568;27.824;2023-06-14T05:16:38;9.18;;;5.57;;
9671;SDS011;4874;43.568;27.824;2023-06-14T05:19:05;9.95;;;6.18;;
9671;SDS011;4874;43.568;27.824;2023-06-14T05:21:33;8.77;;;5.15;;
9671;SDS011;4874;43.568;27.824;2023-06-14T05:24:05;9.60;;;5.70;;
9671;SDS011;4874;43.568;27.824;2023-06-14T05:26:32;13.30;;;8.75;;
9671;SDS011;4874;43.568;27.824;2023-06-14T05:28:59;10.90;;;5.68;;
9671;SDS011;4874;43.568;27.824;2023-06-14T05:31:27;8.38;;;5.97;;
9671;SDS011;4874;43.568;27.824;2023-06-14T05:33:54;7.82;;;5.38;;
9671;SDS011;4874;43.568;27.824;2023-06-14T05:36:21;7.63;;;5.90;;
9671;SDS011;4874;43.568;27.824;2023-06-14T05:38:48;11.80;;;7.53;;
9671;SDS011;4874;43.568;27.824;2023-06-14T05:41:15;8.23;;;5.40;;
9671;SDS011;4874;43.568;27.824;2023-06-14T05:43:42;8.85;;;5.18;;
9671;SDS011;4874;43.568;27.824;2023-06-14T05:46:15;7.50;;;5.75;;
9671;SDS011;4874;43.568;27.824;2023-06-14T05:48:44;7.38;;;5.55;;
9671;SDS011;4874;43.568;27.824;2023-06-14T05:51:11;13.23;;;5.05;;
9671;SDS011;4874;43.568;27.824;2023-06-14T05:53:48;7.03;;;5.20;;
9671;SDS011;4874;43.568;27.824;2023-06-14T05:56:30;9.50;;;5.78;;
9671;SDS011;4874;43.568;27.824;2023-06-14T05:58:57;9.70;;;5.57;;
9671;SDS011;4874;43.568;27.824;2023-06-14T06:01:24;7.13;;;4.78;;
9671;SDS011;4874;43.568;27.824;2023-06-14T06:03:51;8.55;;;4.45;;
9671;SDS011;4874;43.568;27.824;2023-06-14T06:06:18;9.48;;;6.00;;
9671;SDS011;4874;43.568;27.824;2023-06-14T06:08:45;10.38;;;5.47;;
9671;SDS011;4874;43.568;27.824;2023-06-14T06:11:12;7.95;;;4.75;;
9671;SDS011;4874;43.568;27.824;2023-06-14T06:13:39;5.65;;;4.22;;
9671;SDS011;4874;43.568;27.824;2023-06-14T06:16:07;5.65;;;3.85;;
9671;SDS011;4874;43.568;27.824;2023-06-14T06:18:34;9.52;;;5.13;;
9671;SDS011;4874;43.568;27.824;2023-06-14T06:21:00;6.25;;;4.10;;
9671;SDS011;4874;43.568;27.824;2023-06-14T06:23:29;6.78;;;4.03;;
9671;SDS011;4874;43.568;27.824;2023-06-14T06:25:56;5.60;;;3.97;;
9671;SDS011;4874;43.568;27.824;2023-06-14T06:28:23;7.82;;;4.53;;
9671;SDS011;4874;43.568;27.824;2023-06-14T06:33:46;6.32;;;3.53;;
9671;SDS011;4874;43.568;27.824;2023-06-14T06:36:13;5.88;;;3.75;;
9671;SDS011;4874;43.568;27.824;2023-06-14T06:38:39;8.45;;;3.70;;
9671;SDS011;4874;43.568;27.824;2023-06-14T06:41:07;7.25;;;3.70;;
9671;SDS011;4874;43.568;27.824;2023-06-14T06:43:34;7.22;;;4.13;;
9671;SDS011;4874;43.568;27.824;2023-06-14T06:46:00;6.43;;;4.03;;
9671;SDS011;4874;43.568;27.824;2023-06-14T06:48:27;6.45;;;4.82;;
9671;SDS011;4874;43.568;27.824;2023-06-14T06:50:54;9.35;;;4.13;;
9671;SDS011;4874;43.568;27.824;2023-06-14T06:53:21;6.88;;;4.00;;
9671;SDS011;4874;43.568;27.824;2023-06-14T06:56:00;5.40;;;3.30;;
9671;SDS011;4874;43.568;27.824;2023-06-14T06:58:27;9.15;;;4.35;;
9671;SDS011;4874;43.568;27.824;2023-06-14T07:00:53;8.82;;;3.75;;
9671;SDS011;4874;43.568;27.824;2023-06-14T07:03:20;5.40;;;3.53;;
9671;SDS011;4874;43.568;27.824;2023-06-14T07:05:47;5.00;;;3.33;;
9671;SDS011;4874;43.568;27.824;2023-06-14T07:08:14;11.13;;;5.45;;
9671;SDS011;4874;43.568;27.824;2023-06-14T07:10:41;7.35;;;4.15;;
9671;SDS011;4874;43.568;27.824;2023-06-14T07:13:07;5.05;;;3.50;;
9671;SDS011;4874;43.568;27.824;2023-06-14T07:15:35;9.55;;;4.10;;
9671;SDS011;4874;43.568;27.824;2023-06-14T07:18:02;10.18;;;4.15;;
9671;SDS011;4874;43.568;27.824;2023-06-14T07:20:29;6.18;;;3.90;;
9671;SDS011;4874;43.568;27.824;2023-06-14T07:22:57;6.05;;;3.83;;
9671;SDS011;4874;43.568;27.824;2023-06-14T07:25:23;6.35;;;3.90;;
9671;SDS011;4874;43.568;27.824;2023-06-14T07:27:50;4.80;;;3.55;;
9671;SDS011;4874;43.568;27.824;2023-06-14T07:30:17;5.00;;;3.35;;
9671;SDS011;4874;43.568;27.824;2023-06-14T07:32:44;5.95;;;3.67;;
9671;SDS011;4874;43.568;27.824;2023-06-14T07:35:11;4.97;;;2.83;;
9671;SDS011;4874;43.568;27.824;2023-06-14T07:37:37;5.80;;;3.03;;
9671;SDS011;4874;43.568;27.824;2023-06-14T07:40:04;6.95;;;3.47;;
9671;SDS011;4874;43.568;27.824;2023-06-14T07:42:34;5.65;;;3.30;;
9671;SDS011;4874;43.568;27.824;2023-06-14T07:45:02;4.65;;;3.00;;
9671;SDS011;4874;43.568;27.824;2023-06-14T07:47:30;7.35;;;3.00;;
9671;SDS011;4874;43.568;27.824;2023-06-14T07:49:56;4.53;;;2.95;;
9671;SDS011;4874;43.568;27.824;2023-06-14T07:52:23;6.72;;;3.00;;
9671;SDS011;4874;43.568;27.824;2023-06-14T07:54:51;5.07;;;3.30;;
9671;SDS011;4874;43.568;27.824;2023-06-14T07:57:18;7.82;;;3.10;;
9671;SDS011;4874;43.568;27.824;2023-06-14T07:59:46;6.57;;;3.25;;
9671;SDS011;4874;43.568;27.824;2023-06-14T08:02:13;7.03;;;4.50;;
9671;SDS011;4874;43.568;27.824;2023-06-14T08:04:40;4.88;;;3.50;;
9671;SDS011;4874;43.568;27.824;2023-06-14T08:07:07;5.80;;;3.40;;
9671;SDS011;4874;43.568;27.824;2023-06-14T08:09:35;4.80;;;2.90;;
9671;SDS011;4874;43.568;27.824;2023-06-14T08:12:05;8.25;;;3.30;;
9671;SDS011;4874;43.568;27.824;2023-06-14T08:14:36;5.07;;;3.03;;
9671;SDS011;4874;43.568;27.824;2023-06-14T08:17:03;6.00;;;3.08;;
9671;SDS011;4874;43.568;27.824;2023-06-14T08:19:30;5.00;;;2.70;;
9671;SDS011;4874;43.568;27.824;2023-06-14T08:21:57;5.15;;;3.30;;
9671;SDS011;4874;43.568;27.824;2023-06-14T08:24:24;4.03;;;2.75;;
9671;SDS011;4874;43.568;27.824;2023-06-14T08:26:51;5.85;;;2.40;;
9671;SDS011;4874;43.568;27.824;2023-06-14T08:29:18;5.50;;;2.40;;
9671;SDS011;4874;43.568;27.824;2023-06-14T08:31:45;3.90;;;2.42;;
9671;SDS011;4874;43.568;27.824;2023-06-14T08:34:11;4.38;;;2.90;;
9671;SDS011;4874;43.568;27.824;2023-06-14T08:36:38;6.20;;;3.20;;
9671;SDS011;4874;43.568;27.824;2023-06-14T08:39:05;4.43;;;2.60;;
9671;SDS011;4874;43.568;27.824;2023-06-14T08:41:32;4.57;;;2.67;;
9671;SDS011;4874;43.568;27.824;2023-06-14T08:44:00;4.10;;;2.90;;
9671;SDS011;4874;43.568;27.824;2023-06-14T08:46:26;4.57;;;2.92;;
9671;SDS011;4874;43.568;27.824;2023-06-14T08:48:55;8.73;;;2.85;;
9671;SDS011;4874;43.568;27.824;2023-06-14T08:51:25;6.10;;;2.92;;
9671;SDS011;4874;43.568;27.824;2023-06-14T08:53:54;3.50;;;2.50;;
9671;SDS011;4874;43.568;27.824;2023-06-14T08:56:25;3.88;;;2.28;;
9671;SDS011;4874;43.568;27.824;2023-06-14T08:58:54;5.05;;;2.83;;
9671;SDS011;4874;43.568;27.824;2023-06-14T09:01:23;5.80;;;2.50;;
9671;SDS011;4874;43.568;27.824;2023-06-14T09:03:50;4.80;;;2.50;;
9671;SDS011;4874;43.568;27.824;2023-06-14T09:06:18;4.80;;;2.63;;
9671;SDS011;4874;43.568;27.824;2023-06-14T09:08:46;3.55;;;2.10;;
9671;SDS011;4874;43.568;27.824;2023-06-14T09:11:16;6.05;;;2.70;;
9671;SDS011;4874;43.568;27.824;2023-06-14T09:13:48;3.97;;;2.40;;
9671;SDS011;4874;43.568;27.824;2023-06-14T09:16:15;3.95;;;2.10;;
9671;SDS011;4874;43.568;27.824;2023-06-14T09:18:44;7.03;;;1.88;;
9671;SDS011;4874;43.568;27.824;2023-06-14T09:21:14;4.72;;;2.10;;
9671;SDS011;4874;43.568;27.824;2023-06-14T09:23:46;3.47;;;2.20;;
9671;SDS011;4874;43.568;27.824;2023-06-14T09:26:15;5.93;;;2.28;;
9671;SDS011;4874;43.568;27.824;2023-06-14T09:31:14;3.35;;;2.03;;
9671;SDS011;4874;43.568;27.824;2023-06-14T09:33:46;5.50;;;2.50;;
9671;SDS011;4874;43.568;27.824;2023-06-14T09:36:15;3.38;;;2.10;;
9671;SDS011;4874;43.568;27.824;2023-06-14T09:38:53;5.10;;;2.33;;
9671;SDS011;4874;43.568;27.824;2023-06-14T09:41:42;4.40;;;2.33;;
9671;SDS011;4874;43.568;27.824;2023-06-14T09:44:09;3.08;;;2.03;;
9671;SDS011;4874;43.568;27.824;2023-06-14T09:46:45;3.42;;;2.10;;
9671;SDS011;4874;43.568;27.824;2023-06-14T09:49:12;3.42;;;2.22;;
9671;SDS011;4874;43.568;27.824;2023-06-14T09:51:42;5.63;;;2.97;;
9671;SDS011;4874;43.568;27.824;2023-06-14T09:54:14;2.92;;;1.80;;
9671;SDS011;4874;43.568;27.824;2023-06-14T09:56:46;4.95;;;2.47;;
9671;SDS011;4874;43.568;27.824;2023-06-14T09:59:13;4.55;;;2.25;;
9671;SDS011;4874;43.568;27.824;2023-06-14T10:01:46;4.10;;;2.55;;
9671;SDS011;4874;43.568;27.824;2023-06-14T10:04:14;3.88;;;2.33;;
9671;SDS011;4874;43.568;27.824;2023-06-14T10:06:46;4.07;;;2.60;;
9671;SDS011;4874;43.568;27.824;2023-06-14T10:09:13;5.55;;;2.60;;
9671;SDS011;4874;43.568;27.824;2023-06-14T10:11:40;3.45;;;2.35;;
9671;SDS011;4874;43.568;27.824;2023-06-14T10:14:11;3.33;;;2.10;;
9671;SDS011;4874;43.568;27.824;2023-06-14T10:19:32;3.80;;;2.30;;
9671;SDS011;4874;43.568;27.824;2023-06-14T10:22:11;4.10;;;2.30;;
9671;SDS011;4874;43.568;27.824;2023-06-14T10:24:43;4.15;;;2.30;;
9671;SDS011;4874;43.568;27.824;2023-06-14T10:27:14;4.13;;;2.03;;
9671;SDS011;4874;43.568;27.824;2023-06-14T10:32:20;4.97;;;2.30;;
9671;SDS011;4874;43.568;27.824;2023-06-14T10:34:53;4.47;;;2.03;;
9671;SDS011;4874;43.568;27.824;2023-06-14T10:37:27;5.55;;;2.30;;
9671;SDS011;4874;43.568;27.824;2023-06-14T10:39:54;3.97;;;2.33;;
9671;SDS011;4874;43.568;27.824;2023-06-14T10:42:21;3.53;;;2.05;;
9671;SDS011;4874;43.568;27.824;2023-06-14T10:47:20;4.93;;;2.58;;
9671;SDS011;4874;43.568;27.824;2023-06-14T10:50:05;4.93;;;2.47;;
9671;SDS011;4874;43.568;27.824;2023-06-14T10:52:40;3.35;;;2.15;;
9671;SDS011;4874;43.568;27.824;2023-06-14T10:55:12;3.92;;;2.55;;
9671;SDS011;4874;43.568;27.824;2023-06-14T10:57:42;5.47;;;3.83;;
9671;SDS011;4874;43.568;27.824;2023-06-14T11:00:23;5.25;;;3.30;;
9671;SDS011;4874;43.568;27.824;2023-06-14T11:06:08;4.60;;;2.40;;
9671;SDS011;4874;43.568;27.824;2023-06-14T11:11:31;4.63;;;2.30;;
9671;SDS011;4874;43.568;27.824;2023-06-14T11:14:01;3.55;;;2.30;;
9671;SDS011;4874;43.568;27.824;2023-06-14T11:16:29;7.47;;;2.95;;
9671;SDS011;4874;43.568;27.824;2023-06-14T11:18:56;4.55;;;2.20;;
9671;SDS011;4874;43.568;27.824;2023-06-14T11:21:23;15.23;;;3.90;;
9671;SDS011;4874;43.568;27.824;2023-06-14T11:23:52;4.65;;;2.35;;
9671;SDS011;4874;43.568;27.824;2023-06-14T11:26:29;4.95;;;2.53;;
9671;SDS011;4874;43.568;27.824;2023-06-14T11:28:58;3.70;;;2.10;;
9671;SDS011;4874;43.568;27.824;2023-06-14T11:31:26;4.22;;;2.42;;
9671;SDS011;4874;43.568;27.824;2023-06-14T11:33:54;5.60;;;2.75;;
9671;SDS011;4874;43.568;27.824;2023-06-14T11:36:25;2.80;;;1.92;;
9671;SDS011;4874;43.568;27.824;2023-06-14T11:39:00;3.95;;;2.42;;
9671;SDS011;4874;43.568;27.824;2023-06-14T11:44:03;4.20;;;3.10;;
9671;SDS011;4874;43.568;27.824;2023-06-14T11:46:30;4.60;;;2.47;;
9671;SDS011;4874;43.568;27.824;2023-06-14T11:48:57;4.45;;;2.33;;
9671;SDS011;4874;43.568;27.824;2023-06-14T11:51:24;7.63;;;3.20;;
9671;SDS011;4874;43.568;27.824;2023-06-14T11:53:51;4.22;;;2.20;;
9671;SDS011;4874;43.568;27.824;2023-06-14T11:56:19;3.33;;;2.30;;
9671;SDS011;4874;43.568;27.824;2023-06-14T11:58:46;4.25;;;2.92;;
9671;SDS011;4874;43.568;27.824;2023-06-14T12:01:19;4.80;;;3.17;;
9671;SDS011;4874;43.568;27.824;2023-06-14T12:03:49;4.55;;;2.17;;
9671;SDS011;4874;43.568;27.824;2023-06-14T12:06:16;5.65;;;3.08;;
9671;SDS011;4874;43.568;27.824;2023-06-14T12:08:57;4.35;;;3.08;;
9671;SDS011;4874;43.568;27.824;2023-06-14T12:11:32;3.72;;;2.30;;
9671;SDS011;4874;43.568;27.824;2023-06-14T12:14:02;3.40;;;2.10;;
9671;SDS011;4874;43.568;27.824;2023-06-14T12:16:31;5.25;;;2.45;;
9671;SDS011;4874;43.568;27.824;2023-06-14T12:19:15;3.10;;;2.10;;
9671;SDS011;4874;43.568;27.824;2023-06-14T12:21:43;3.75;;;2.38;;
9671;SDS011;4874;43.568;27.824;2023-06-14T12:24:15;4.38;;;2.50;;
9671;SDS011;4874;43.568;27.824;2023-06-14T12:26:42;6.80;;;3.55;;
9671;SDS011;4874;43.568;27.824;2023-06-14T12:29:09;7.60;;;5.82;;
9671;SDS011;4874;43.568;27.824;2023-06-14T12:31:37;4.45;;;2.75;;
9671;SDS011;4874;43.568;27.824;2023-06-14T12:34:04;6.35;;;3.90;;
9671;SDS011;4874;43.568;27.824;2023-06-14T12:36:31;3.33;;;2.20;;
9671;SDS011;4874;43.568;27.824;2023-06-14T12:38:58;7.20;;;4.30;;
9671;SDS011;4874;43.568;27.824;2023-06-14T12:41:25;4.13;;;2.75;;
9671;SDS011;4874;43.568;27.824;2023-06-14T12:43:53;3.55;;;2.25;;
9671;SDS011;4874;43.568;27.824;2023-06-14T12:46:20;4.82;;;2.33;;
9671;SDS011;4874;43.568;27.824;2023-06-14T12:48:47;4.25;;;2.33;;
9671;SDS011;4874;43.568;27.824;2023-06-14T12:51:14;3.58;;;2.10;;
9671;SDS011;4874;43.568;27.824;2023-06-14T12:53:40;4.25;;;2.58;;
9671;SDS011;4874;43.568;27.824;2023-06-14T12:56:07;4.00;;;2.22;;
9671;SDS011;4874;43.568;27.824;2023-06-14T12:58:34;3.58;;;2.35;;
9671;SDS011;4874;43.568;27.824;2023-06-14T13:01:01;4.10;;;2.10;;
9671;SDS011;4874;43.568;27.824;2023-06-14T13:03:27;5.40;;;3.10;;
9671;SDS011;4874;43.568;27.824;2023-06-14T13:05:55;7.45;;;3.75;;
9671;SDS011;4874;43.568;27.824;2023-06-14T13:08:22;5.40;;;2.95;;
9671;SDS011;4874;43.568;27.824;2023-06-14T13:10:50;4.18;;;2.80;;
9671;SDS011;4874;43.568;27.824;2023-06-14T13:13:17;3.55;;;2.45;;
9671;SDS011;4874;43.568;27.824;2023-06-14T13:15:44;5.20;;;2.20;;
9671;SDS011;4874;43.568;27.824;2023-06-14T13:18:12;5.55;;;2.10;;
9671;SDS011;4874;43.568;27.824;2023-06-14T13:20:39;4.38;;;2.55;;
9671;SDS011;4874;43.568;27.824;2023-06-14T13:23:06;6.03;;;2.88;;
9671;SDS011;4874;43.568;27.824;2023-06-14T13:25:34;3.72;;;2.38;;
9671;SDS011;4874;43.568;27.824;2023-06-14T13:28:01;5.57;;;3.00;;
9671;SDS011;4874;43.568;27.824;2023-06-14T13:30:28;6.70;;;3.40;;
9671;SDS011;4874;43.568;27.824;2023-06-14T13:32:56;5.18;;;2.40;;
9671;SDS011;4874;43.568;27.824;2023-06-14T13:35:23;10.43;;;2.90;;
9671;SDS011;4874;43.568;27.824;2023-06-14T13:37:50;3.95;;;2.40;;
9671;SDS011;4874;43.568;27.824;2023-06-14T13:40:17;3.70;;;2.13;;
9671;SDS011;4874;43.568;27.824;2023-06-14T13:42:45;5.07;;;2.40;;
9671;SDS011;4874;43.568;27.824;2023-06-14T13:45:13;6.40;;;2.45;;
9671;SDS011;4874;43.568;27.824;2023-06-14T13:47:39;5.18;;;3.50;;
9671;SDS011;4874;43.568;27.824;2023-06-14T13:50:06;6.20;;;2.78;;
9671;SDS011;4874;43.568;27.824;2023-06-14T13:52:35;4.60;;;2.53;;
9671;SDS011;4874;43.568;27.824;2023-06-14T13:55:04;4.88;;;2.70;;
9671;SDS011;4874;43.568;27.824;2023-06-14T13:57:31;10.27;;;5.32;;
9671;SDS011;4874;43.568;27.824;2023-06-14T13:59:59;5.22;;;3.17;;
9671;SDS011;4874;43.568;27.824;2023-06-14T14:02:28;5.80;;;2.30;;
9671;SDS011;4874;43.568;27.824;2023-06-14T14:04:55;3.60;;;2.30;;
9671;SDS011;4874;43.568;27.824;2023-06-14T14:07:23;3.80;;;2.35;;
9671;SDS011;4874;43.568;27.824;2023-06-14T14:09:50;3.92;;;2.53;;
9671;SDS011;4874;43.568;27.824;2023-06-14T14:12:17;5.25;;;2.97;;
9671;SDS011;4874;43.568;27.824;2023-06-14T14:14:44;4.20;;;2.65;;
9671;SDS011;4874;43.568;27.824;2023-06-14T14:17:12;8.30;;;2.30;;
9671;SDS011;4874;43.568;27.824;2023-06-14T14:19:39;3.95;;;2.50;;
9671;SDS011;4874;43.568;27.824;2023-06-14T14:22:06;7.13;;;4.07;;
9671;SDS011;4874;43.568;27.824;2023-06-14T14:24:33;5.57;;;2.83;;
9671;SDS011;4874;43.568;27.824;2023-06-14T14:27:00;4.18;;;2.50;;
9671;SDS011;4874;43.568;27.824;2023-06-14T14:29:26;6.88;;;3.15;;
9671;SDS011;4874;43.568;27.824;2023-06-14T14:31:55;7.18;;;3.70;;
9671;SDS011;4874;43.568;27.824;2023-06-14T14:34:24;4.75;;;3.15;;
9671;SDS011;4874;43.568;27.824;2023-06-14T14:36:51;6.13;;;4.35;;
9671;SDS011;4874;43.568;27.824;2023-06-14T14:39:18;6.05;;;3.53;;
9671;SDS011;4874;43.568;27.824;2023-06-14T14:41:45;5.05;;;3.63;;
9671;SDS011;4874;43.568;27.824;2023-06-14T14:44:12;6.43;;;4.43;;
9671;SDS011;4874;43.568;27.824;2023-06-14T14:46:39;5.40;;;3.60;;
9671;SDS011;4874;43.568;27.824;2023-06-14T14:49:05;6.85;;;3.95;;
9671;SDS011;4874;43.568;27.824;2023-06-14T14:51:32;5.30;;;3.67;;
9671;SDS011;4874;43.568;27.824;2023-06-14T14:53:59;8.57;;;4.28;;
9671;SDS011;4874;43.568;27.824;2023-06-14T14:56:25;5.20;;;4.05;;
9671;SDS011;4874;43.568;27.824;2023-06-14T14:58:52;6.32;;;3.50;;
9671;SDS011;4874;43.568;27.824;2023-06-14T15:01:19;6.57;;;3.70;;
9671;SDS011;4874;43.568;27.824;2023-06-14T15:03:46;6.38;;;3.50;;
9671;SDS011;4874;43.568;27.824;2023-06-14T15:06:15;5.38;;;3.72;;
9671;SDS011;4874;43.568;27.824;2023-06-14T15:08:45;6.85;;;4.50;;
9671;SDS011;4874;43.568;27.824;2023-06-14T15:11:11;9.40;;;4.25;;
9671;SDS011;4874;43.568;27.824;2023-06-14T15:13:38;7.97;;;4.13;;
9671;SDS011;4874;43.568;27.824;2023-06-14T15:16:05;8.43;;;4.00;;
9671;SDS011;4874;43.568;27.824;2023-06-14T15:18:32;7.20;;;4.25;;
9671;SDS011;4874;43.568;27.824;2023-06-14T15:20:58;5.53;;;4.13;;
9671;SDS011;4874;43.568;27.824;2023-06-14T15:23:25;7.47;;;4.57;;
9671;SDS011;4874;43.568;27.824;2023-06-14T15:25:52;8.10;;;4.22;;
9671;SDS011;4874;43.568;27.824;2023-06-14T15:28:19;5.40;;;4.30;;